createdAt,value
2023-02-12T00:00:58.988Z,10.16
2023-02-12T00:03:26.928Z,10.07
2023-02-12T00:05:55.019Z,10.51
2023-02-12T00:08:22.976Z,10.48
2023-02-12T00:10:50.781Z,10.60
2023-02-12T00:13:18.534Z,10.50
2023-02-12T00:15:47.776Z,10.61
2023-02-12T00:18:15.586Z,10.78
2023-02-12T00:20:43.352Z,10.30
2023-02-12T00:23:12.383Z,9.68
2023-02-12T00:25:42.905Z,10.60
2023-02-12T00:28:10.792Z,10.06
2023-02-12T00:30:38.717Z,10.01
2023-02-12T00:33:08.145Z,10.19
2023-02-12T00:35:35.945Z,9.86
2023-02-12T00:38:03.785Z,9.55
2023-02-12T00:40:31.636Z,9.52
2023-02-12T00:42:59.380Z,9.50
2023-02-12T00:45:27.226Z,9.61
2023-02-12T00:47:55.033Z,10.06
2023-02-12T00:50:24.205Z,9.93
2023-02-12T00:52:52.214Z,9.48
2023-02-12T00:55:20.412Z,9.91
2023-02-12T00:57:48.221Z,9.73
2023-02-12T01:00:17.331Z,9.68
2023-02-12T01:02:45.203Z,9.86
2023-02-12T01:05:13.006Z,9.91
2023-02-12T01:07:42.248Z,10.03
2023-02-12T01:10:10.557Z,10.05
2023-02-12T01:12:38.353Z,10.15
2023-02-12T01:15:06.564Z,10.79
2023-02-12T01:17:34.371Z,10.50
2023-02-12T01:20:02.131Z,10.26
2023-02-12T01:22:30.092Z,10.02
2023-02-12T01:24:59.299Z,10.17
2023-02-12T01:27:27.129Z,10.10
2023-02-12T01:29:56.878Z,9.96
2023-02-12T01:32:25.108Z,10.45
2023-02-12T01:34:53.734Z,9.98
2023-02-12T01:37:22.846Z,10.01
2023-02-12T01:39:50.622Z,9.94
2023-02-12T01:42:19.828Z,10.60
2023-02-12T01:45:34.476Z,10.25
2023-02-12T01:48:02.734Z,10.68
2023-02-12T01:50:30.847Z,10.36
2023-02-12T01:52:59.715Z,10.15
2023-02-12T01:55:27.771Z,10.50
2023-02-12T01:57:57.271Z,10.54
2023-02-12T02:00:26.293Z,10.30
2023-02-12T02:02:58.070Z,10.37
2023-02-12T02:05:32.189Z,10.50
2023-02-12T02:08:00.967Z,10.43
2023-02-12T02:10:30.637Z,10.58
2023-02-12T02:13:17.353Z,10.82
2023-02-12T02:15:50.318Z,10.71
2023-02-12T02:18:26.088Z,10.55
2023-02-12T02:21:19.923Z,10.22
2023-02-12T02:24:04.422Z,10.37
2023-02-12T02:26:53.276Z,9.90
2023-02-12T02:30:10.803Z,10.03
2023-02-12T02:32:44.959Z,9.93
2023-02-12T02:35:17.388Z,10.65
2023-02-12T02:37:50.166Z,10.03
2023-02-12T02:40:20.831Z,10.21
2023-02-12T02:42:55.429Z,10.27
2023-02-12T02:45:29.448Z,10.37
2023-02-12T02:48:01.119Z,10.45
2023-02-12T02:50:31.647Z,10.63
2023-02-12T02:53:03.562Z,10.82
2023-02-12T02:55:36.991Z,10.65
2023-02-12T02:58:12.856Z,10.66
2023-02-12T03:00:47.289Z,10.57
2023-02-12T03:03:23.171Z,10.71
2023-02-12T03:05:56.314Z,10.78
2023-02-12T03:08:27.914Z,10.52
2023-02-12T03:11:00.925Z,10.75
2023-02-12T03:13:33.801Z,10.44
2023-02-12T03:16:08.775Z,10.33
2023-02-12T03:18:42.734Z,10.60
2023-02-12T03:21:14.742Z,10.39
2023-02-12T03:23:49.581Z,10.55
2023-02-12T03:26:21.950Z,10.19
2023-02-12T03:28:50.207Z,10.50
2023-02-12T03:31:29.398Z,10.54
2023-02-12T03:34:07.075Z,10.37
2023-02-12T03:36:41.800Z,10.10
2023-02-12T03:39:14.638Z,10.51
2023-02-12T03:41:46.675Z,10.57
2023-02-12T03:44:21.284Z,10.38
2023-02-12T03:47:00.325Z,10.47
2023-02-12T03:49:33.315Z,10.59
2023-02-12T03:52:01.217Z,10.65
2023-02-12T03:54:29.035Z,10.22
2023-02-12T03:57:00.826Z,10.05
2023-02-12T03:59:29.280Z,9.74
2023-02-12T04:02:00.590Z,9.79
2023-02-12T04:04:29.148Z,10.08
2023-02-12T04:06:57.555Z,10.47
2023-02-12T04:09:27.826Z,10.16
2023-02-12T04:12:07.906Z,9.63
2023-02-12T04:14:45.432Z,10.37
2023-02-12T04:17:23.377Z,9.88
2023-02-12T04:20:03.687Z,10.33
2023-02-12T04:22:46.554Z,10.67
2023-02-12T04:25:24.332Z,10.26
2023-02-12T04:28:00.174Z,10.42
2023-02-12T04:30:33.318Z,10.25
2023-02-12T04:33:05.379Z,10.42
2023-02-12T04:35:36.631Z,10.10
2023-02-12T04:38:10.637Z,10.12
2023-02-12T04:40:41.242Z,10.47
2023-02-12T04:43:09.631Z,10.51
2023-02-12T04:45:38.771Z,10.31
2023-02-12T04:48:08.261Z,10.55
2023-02-12T04:50:40.859Z,10.73
2023-02-12T04:53:09.887Z,10.19
2023-02-12T04:55:37.942Z,10.05
2023-02-12T04:58:05.914Z,10.54
2023-02-12T05:00:33.919Z,10.99
2023-02-12T05:03:01.779Z,10.88
2023-02-12T05:05:30.907Z,10.88
2023-02-12T05:07:58.704Z,10.91
2023-02-12T05:10:26.508Z,10.67
2023-02-12T05:12:54.835Z,10.60
2023-02-12T05:15:23.204Z,10.54
2023-02-12T05:17:50.950Z,10.72
2023-02-12T05:20:18.900Z,10.86
2023-02-12T05:22:51.960Z,10.68
2023-02-12T05:25:19.760Z,10.79
2023-02-12T05:27:47.637Z,11.00
2023-02-12T05:30:15.570Z,10.55
2023-02-12T05:32:43.365Z,10.55
2023-02-12T05:35:11.134Z,11.00
2023-02-12T05:37:39.024Z,10.81
2023-02-12T05:40:09.749Z,11.01
2023-02-12T05:42:37.500Z,10.99
2023-02-12T05:45:06.019Z,10.82
2023-02-12T05:47:33.806Z,10.62
2023-02-12T05:50:01.554Z,10.64
2023-02-12T05:52:29.368Z,10.77
2023-02-12T05:54:57.140Z,10.71
2023-02-12T05:57:26.424Z,10.45
2023-02-12T05:59:54.373Z,10.64
2023-02-12T06:02:22.121Z,10.35
2023-02-12T06:04:49.907Z,10.33
2023-02-12T06:07:17.727Z,9.98
2023-02-12T06:09:45.576Z,9.73
2023-02-12T06:12:13.331Z,10.09
2023-02-12T06:14:43.179Z,9.95
2023-02-12T06:17:10.952Z,9.97
2023-02-12T06:19:38.749Z,10.00
2023-02-12T06:22:07.229Z,10.29
2023-02-12T06:24:35.173Z,10.39
2023-02-12T06:27:03.003Z,10.24
2023-02-12T06:29:30.915Z,10.35
2023-02-12T06:32:00.105Z,10.30
2023-02-12T06:34:28.117Z,10.26
2023-02-12T06:36:56.028Z,10.41
2023-02-12T06:39:23.781Z,9.93
2023-02-12T06:41:51.526Z,9.71
2023-02-12T06:44:19.362Z,9.91
2023-02-12T06:46:47.218Z,10.16
2023-02-12T06:49:16.636Z,9.88
2023-02-12T06:51:44.534Z,9.88
2023-02-12T06:54:14.732Z,10.03
2023-02-12T06:56:42.562Z,9.85
2023-02-12T06:59:14.513Z,9.83
2023-02-12T07:01:42.819Z,9.57
2023-02-12T07:04:11.858Z,9.86
2023-02-12T07:06:41.295Z,10.33
2023-02-12T07:09:09.059Z,10.38
2023-02-12T07:11:39.037Z,10.31
2023-02-12T07:14:07.391Z,9.94
2023-02-12T07:16:35.480Z,9.75
2023-02-12T07:19:03.364Z,9.22
2023-02-12T07:21:31.975Z,10.27
2023-02-12T07:24:01.198Z,10.70
2023-02-12T07:26:29.016Z,10.73
2023-02-12T07:28:58.582Z,11.15
2023-02-12T07:31:26.672Z,11.08
2023-02-12T07:33:55.649Z,10.05
2023-02-12T07:36:24.519Z,10.96
2023-02-12T07:38:52.301Z,10.82
2023-02-12T07:41:23.383Z,10.45
2023-02-12T07:43:55.788Z,10.69
2023-02-12T07:46:29.656Z,10.81
2023-02-12T07:48:58.462Z,10.87
2023-02-12T07:51:26.470Z,10.97
2023-02-12T07:53:54.525Z,10.56
2023-02-12T07:56:25.665Z,10.77
2023-02-12T07:58:54.560Z,10.70
2023-02-12T08:01:24.478Z,10.56
2023-02-12T08:03:52.642Z,11.16
2023-02-12T08:06:23.027Z,11.05
2023-02-12T08:08:52.963Z,10.56
2023-02-12T08:11:20.826Z,10.59
2023-02-12T08:13:49.970Z,11.23
2023-02-12T08:16:19.846Z,11.37
2023-02-12T08:18:48.415Z,11.24
2023-02-12T08:21:18.621Z,11.36
2023-02-12T08:23:49.872Z,11.49
2023-02-12T08:26:20.167Z,11.63
2023-02-12T08:28:51.442Z,11.74
2023-02-12T08:31:21.641Z,11.90
2023-02-12T08:33:51.266Z,11.35
2023-02-12T08:36:20.748Z,11.39
2023-02-12T08:38:48.982Z,11.84
2023-02-12T08:41:20.605Z,11.63
2023-02-12T08:43:53.216Z,11.61
2023-02-12T08:46:22.804Z,11.09
2023-02-12T08:48:54.011Z,11.35
2023-02-12T08:51:23.852Z,11.75
2023-02-12T08:53:55.437Z,11.61
2023-02-12T08:56:24.554Z,11.61
2023-02-12T08:58:54.163Z,12.04
2023-02-12T09:01:23.680Z,11.92
2023-02-12T09:03:52.513Z,11.96
2023-02-12T09:06:22.687Z,11.97
2023-02-12T09:08:52.614Z,11.92
2023-02-12T09:11:24.380Z,12.15
2023-02-12T09:13:54.341Z,12.35
2023-02-12T09:16:22.145Z,12.03
2023-02-12T09:18:50.051Z,12.02
2023-02-12T09:21:19.775Z,11.76
2023-02-12T09:23:48.473Z,12.20
2023-02-12T09:26:20.742Z,12.20
2023-02-12T09:28:49.856Z,11.62
2023-02-12T09:31:23.049Z,11.90
2023-02-12T09:33:54.707Z,12.13
2023-02-12T09:36:23.257Z,12.23
2023-02-12T09:38:51.098Z,12.42
2023-02-12T09:41:36.131Z,12.15
2023-02-12T09:44:08.893Z,12.05
2023-02-12T09:46:46.297Z,12.27
2023-02-12T09:49:19.313Z,12.37
2023-02-12T09:51:53.986Z,12.57
2023-02-12T09:54:24.500Z,12.74
2023-02-12T09:56:55.506Z,12.38
2023-02-12T09:59:32.739Z,13.34
2023-02-12T10:02:02.233Z,12.57
2023-02-12T10:04:30.115Z,12.64
2023-02-12T10:07:07.995Z,13.13
2023-02-12T10:09:48.325Z,12.11
2023-02-12T10:12:27.615Z,13.60
2023-02-12T10:15:12.765Z,13.13
2023-02-12T10:17:48.984Z,12.41
2023-02-12T10:20:47.131Z,12.72
2023-02-12T10:23:29.625Z,13.02
2023-02-12T10:25:59.914Z,13.97
2023-02-12T10:28:40.821Z,13.64
2023-02-12T10:31:16.306Z,13.37
2023-02-12T10:33:48.891Z,13.46
2023-02-12T10:36:35.659Z,13.36
2023-02-12T10:39:08.340Z,13.62
2023-02-12T10:41:40.883Z,13.72
2023-02-12T10:44:10.747Z,13.96
2023-02-12T10:46:38.731Z,13.01
2023-02-12T10:49:12.532Z,13.14
2023-02-12T10:51:59.925Z,12.87
2023-02-12T10:54:40.957Z,13.06
2023-02-12T10:57:15.816Z,13.22
2023-02-12T10:59:45.794Z,13.17
2023-02-12T11:02:21.068Z,12.88
2023-02-12T11:04:50.731Z,13.02
2023-02-12T11:07:19.110Z,13.37
2023-02-12T11:09:48.765Z,12.98
2023-02-12T11:12:32.191Z,13.27
2023-02-12T11:15:02.238Z,13.97
2023-02-12T11:17:36.242Z,14.06
2023-02-12T11:20:25.229Z,13.80
2023-02-12T11:22:56.211Z,13.54
2023-02-12T11:25:26.052Z,13.03
2023-02-12T11:28:13.591Z,13.25
2023-02-12T11:30:51.604Z,13.05
2023-02-12T11:33:26.250Z,13.59
2023-02-12T11:35:57.795Z,12.99
2023-02-12T11:38:28.934Z,13.25
2023-02-12T11:41:00.878Z,13.70
2023-02-12T11:43:31.187Z,13.43
2023-02-12T11:46:01.549Z,13.19
2023-02-12T11:48:34.668Z,12.80
2023-02-12T11:51:06.161Z,13.02
2023-02-12T11:53:36.475Z,13.28
2023-02-12T11:56:07.074Z,13.36
2023-02-12T11:58:35.204Z,13.23
2023-02-12T12:01:08.968Z,13.05
2023-02-12T12:03:45.002Z,12.78
2023-02-12T12:06:35.940Z,12.88
2023-02-12T12:09:11.553Z,13.75
2023-02-12T12:11:47.873Z,13.34
2023-02-12T12:14:25.522Z,13.34
2023-02-12T12:17:14.624Z,13.50
2023-02-12T12:19:56.036Z,13.66
2023-02-12T12:22:47.818Z,13.05
2023-02-12T12:25:24.015Z,13.28
2023-02-12T12:28:03.791Z,13.23
2023-02-12T12:30:42.223Z,13.42
2023-02-12T12:33:18.366Z,12.92
2023-02-12T12:35:57.370Z,12.70
2023-02-12T12:38:41.527Z,12.91
2023-02-12T12:41:20.940Z,12.90
2023-02-12T12:44:04.034Z,13.42
2023-02-12T12:46:49.360Z,13.47
2023-02-12T12:49:41.642Z,13.47
2023-02-12T12:52:21.253Z,13.27
2023-02-12T12:55:08.588Z,13.02
2023-02-12T12:57:47.717Z,12.82
2023-02-12T13:00:25.955Z,12.89
2023-02-12T13:03:21.429Z,12.72
2023-02-12T13:05:59.803Z,12.23
2023-02-12T13:08:40.916Z,12.94
2023-02-12T13:11:20.246Z,12.90
2023-02-12T13:13:51.498Z,12.68
2023-02-12T13:16:24.137Z,12.84
2023-02-12T13:18:59.965Z,13.00
2023-02-12T13:21:39.457Z,13.49
2023-02-12T13:24:22.122Z,12.68
2023-02-12T13:26:55.814Z,12.36
2023-02-12T13:29:28.917Z,12.84
2023-02-12T13:32:00.370Z,12.88
2023-02-12T13:34:30.791Z,12.87
2023-02-12T13:37:01.668Z,12.98
2023-02-12T13:39:34.287Z,12.91
2023-02-12T13:42:16.639Z,12.86
2023-02-12T13:44:52.035Z,13.03
2023-02-12T13:47:30.603Z,13.00
2023-02-12T13:50:04.479Z,13.02
2023-02-12T13:52:40.639Z,12.77
2023-02-12T13:55:26.715Z,12.84
2023-02-12T13:58:27.941Z,11.84
2023-02-12T14:01:00.715Z,12.42
2023-02-12T14:03:30.804Z,12.37
2023-02-12T14:06:17.409Z,12.27
2023-02-12T14:08:48.374Z,12.21
2023-02-12T14:11:19.231Z,12.30
2023-02-12T14:13:53.533Z,12.46
2023-02-12T14:16:40.849Z,12.60
2023-02-12T14:19:57.456Z,12.55
2023-02-12T14:23:01.299Z,12.15
2023-02-12T14:25:45.072Z,12.50
2023-02-12T14:28:24.319Z,12.56
2023-02-12T14:31:35.348Z,12.12
2023-02-12T14:34:39.006Z,12.65
2023-02-12T14:37:17.828Z,13.02
2023-02-12T14:39:46.311Z,12.83
2023-02-12T14:42:55.387Z,12.55
2023-02-12T14:45:32.628Z,12.50
2023-02-12T14:48:03.255Z,12.06
2023-02-12T14:50:39.185Z,12.01
2023-02-12T14:53:27.973Z,11.80
2023-02-12T14:55:57.621Z,11.72
2023-02-12T14:58:27.760Z,11.29
2023-02-12T15:00:57.442Z,11.34
2023-02-12T15:03:34.993Z,11.24
2023-02-12T15:06:09.760Z,11.04
2023-02-12T15:08:44.354Z,11.16
2023-02-12T15:11:29.631Z,11.93
2023-02-12T15:14:02.990Z,11.49
2023-02-12T15:16:46.868Z,11.39
2023-02-12T15:19:29.472Z,11.13
2023-02-12T15:21:57.797Z,11.63
2023-02-12T15:24:27.045Z,11.30
2023-02-12T15:26:57.496Z,11.24
2023-02-12T15:29:28.262Z,11.68
2023-02-12T15:31:57.960Z,11.62
2023-02-12T15:34:31.033Z,11.64
2023-02-12T15:37:02.054Z,11.39
2023-02-12T15:39:44.468Z,11.75
2023-02-12T15:42:26.294Z,11.29
2023-02-12T15:45:03.579Z,11.05
2023-02-12T15:47:31.324Z,11.35
2023-02-12T15:50:01.686Z,11.90
2023-02-12T15:52:35.979Z,11.93
2023-02-12T15:55:05.909Z,11.44
2023-02-12T15:57:34.575Z,11.92
2023-02-12T16:00:07.878Z,12.19
2023-02-12T16:02:40.643Z,12.15
2023-02-12T16:05:16.973Z,11.95
2023-02-12T16:07:46.670Z,12.08
2023-02-12T16:10:16.848Z,11.77
2023-02-12T16:12:45.754Z,11.15
2023-02-12T16:15:26.269Z,11.28
2023-02-12T16:17:54.178Z,11.20
2023-02-12T16:20:27.133Z,11.24
2023-02-12T16:22:55.947Z,11.74
2023-02-12T16:25:26.420Z,11.57
2023-02-12T16:28:06.609Z,10.94
2023-02-12T16:30:38.677Z,10.99
2023-02-12T16:33:26.692Z,10.59
2023-02-12T16:36:03.319Z,11.27
2023-02-12T16:38:42.939Z,10.71
2023-02-12T16:41:24.471Z,11.12
2023-02-12T16:44:12.878Z,11.19
2023-02-12T16:46:48.257Z,10.93
2023-02-12T16:49:18.084Z,10.73
2023-02-12T16:51:48.678Z,11.23
2023-02-12T16:54:29.102Z,10.82
2023-02-12T16:56:57.212Z,10.55
2023-02-12T16:59:25.110Z,10.62
2023-02-12T17:02:01.067Z,11.38
2023-02-12T17:04:29.047Z,11.66
2023-02-12T17:06:58.984Z,11.69
2023-02-12T17:09:26.744Z,11.68
2023-02-12T17:11:54.507Z,11.39
2023-02-12T17:14:22.261Z,10.82
2023-02-12T17:16:50.403Z,11.30
2023-02-12T17:19:18.369Z,11.33
2023-02-12T17:21:49.485Z,11.37
2023-02-12T17:24:22.188Z,11.21
2023-02-12T17:26:51.342Z,11.23
2023-02-12T17:29:19.770Z,11.32
2023-02-12T17:31:48.343Z,11.49
2023-02-12T17:34:16.680Z,11.74
2023-02-12T17:36:44.496Z,11.51
2023-02-12T17:39:14.333Z,11.38
2023-02-12T17:41:44.163Z,11.08
2023-02-12T17:44:13.284Z,11.36
2023-02-12T17:46:41.124Z,11.59
2023-02-12T17:49:09.008Z,11.22
2023-02-12T17:51:36.863Z,11.38
2023-02-12T17:54:05.102Z,11.52
2023-02-12T17:56:33.200Z,11.74
2023-02-12T17:59:02.601Z,11.68
2023-02-12T18:01:30.996Z,11.66
2023-02-12T18:03:59.575Z,11.56
2023-02-12T18:06:29.171Z,11.36
2023-02-12T18:08:58.611Z,11.57
2023-02-12T18:11:27.632Z,11.34
2023-02-12T18:13:57.746Z,11.51
2023-02-12T18:16:30.451Z,11.58
2023-02-12T18:18:59.876Z,11.51
2023-02-12T18:21:28.222Z,11.71
2023-02-12T18:23:55.984Z,11.09
2023-02-12T18:26:24.261Z,11.33
2023-02-12T18:28:53.822Z,11.13
2023-02-12T18:31:22.020Z,11.52
2023-02-12T18:33:51.372Z,11.62
2023-02-12T18:36:21.072Z,11.21
2023-02-12T18:38:51.682Z,11.26
2023-02-12T18:41:21.090Z,11.13
2023-02-12T18:43:49.085Z,11.21
2023-02-12T18:46:19.407Z,11.26
2023-02-12T18:48:48.009Z,11.67
2023-02-12T18:51:19.362Z,11.55
2023-02-12T18:53:47.120Z,11.37
2023-02-12T18:56:15.310Z,11.30
2023-02-12T18:58:43.137Z,11.39
2023-02-12T19:01:16.167Z,11.51
2023-02-12T19:03:44.145Z,11.55
2023-02-12T19:06:12.542Z,11.58
2023-02-12T19:08:41.714Z,11.96
2023-02-12T19:11:11.286Z,12.12
2023-02-12T19:13:39.948Z,11.85
2023-02-12T19:16:08.832Z,11.87
2023-02-12T19:18:36.611Z,12.07
2023-02-12T19:21:07.333Z,11.59
2023-02-12T19:23:35.513Z,11.10
2023-02-12T19:26:05.762Z,11.24
2023-02-12T19:28:34.426Z,11.23
2023-02-12T19:31:10.231Z,11.22
2023-02-12T19:33:39.028Z,11.34
2023-02-12T19:36:07.662Z,11.20
2023-02-12T19:38:35.482Z,11.29
2023-02-12T19:41:05.712Z,11.32
2023-02-12T19:43:33.870Z,11.32
2023-02-12T19:46:02.692Z,11.28
2023-02-12T19:48:30.768Z,11.29
2023-02-12T19:50:58.906Z,11.26
2023-02-12T19:53:27.386Z,11.31
2023-02-12T19:55:55.857Z,11.19
2023-02-12T19:58:24.977Z,11.26
2023-02-12T20:00:52.980Z,11.17
2023-02-12T20:03:23.007Z,11.08
2023-02-12T20:05:53.106Z,11.01
2023-02-12T20:08:21.011Z,10.97
2023-02-12T20:10:48.791Z,10.95
2023-02-12T20:13:18.851Z,10.76
2023-02-12T20:15:48.000Z,10.34
2023-02-12T20:18:15.774Z,10.20
2023-02-12T20:20:43.598Z,10.86
2023-02-12T20:23:11.376Z,10.84
2023-02-12T20:25:43.789Z,10.91
2023-02-12T20:28:12.244Z,10.84
2023-02-12T20:30:41.206Z,10.98
2023-02-12T20:33:11.061Z,10.46
2023-02-12T20:35:38.844Z,10.78
2023-02-12T20:38:07.526Z,11.07
2023-02-12T20:40:35.413Z,10.90
2023-02-12T20:43:03.211Z,10.17
2023-02-12T20:45:31.142Z,10.25
2023-02-12T20:47:58.897Z,10.19
2023-02-12T20:50:28.140Z,11.20
2023-02-12T20:52:56.047Z,10.94
2023-02-12T20:55:23.985Z,11.05
2023-02-12T20:57:51.789Z,11.21
2023-02-12T21:00:20.043Z,10.97
2023-02-12T21:02:48.082Z,11.06
2023-02-12T21:05:16.053Z,10.81
2023-02-12T21:07:46.067Z,10.80
2023-02-12T21:10:13.854Z,10.82
2023-02-12T21:12:41.670Z,10.89
2023-02-12T21:15:10.170Z,10.96
2023-02-12T21:17:37.947Z,10.76
2023-02-12T21:20:07.754Z,10.87
2023-02-12T21:22:35.554Z,10.65
2023-02-12T21:25:05.051Z,10.72
2023-02-12T21:27:32.944Z,10.82
2023-02-12T21:30:00.840Z,10.74
2023-02-12T21:32:28.782Z,10.68
2023-02-12T21:34:56.683Z,10.87
2023-02-12T21:37:24.489Z,11.11
2023-02-12T21:39:52.382Z,11.19
2023-02-12T21:42:21.528Z,10.75
2023-02-12T21:44:49.297Z,10.76
2023-02-12T21:47:17.074Z,10.54
2023-02-12T21:49:44.889Z,10.95
2023-02-12T21:52:12.681Z,10.85
2023-02-12T21:54:40.522Z,10.73
2023-02-12T21:57:08.346Z,10.56
2023-02-12T21:59:37.515Z,9.71
2023-02-12T22:02:05.988Z,9.62
2023-02-12T22:04:33.965Z,9.72
2023-02-12T22:07:03.301Z,9.53
2023-02-12T22:09:32.606Z,10.24
2023-02-12T22:12:00.395Z,10.26
2023-02-12T22:14:28.149Z,10.34
2023-02-12T22:16:57.415Z,10.67
2023-02-12T22:19:25.330Z,10.64
2023-02-12T22:21:53.149Z,10.56
2023-02-12T22:24:21.758Z,10.38
2023-02-12T22:26:49.707Z,10.38
2023-02-12T22:29:18.263Z,10.46
2023-02-12T22:31:47.692Z,10.59
2023-02-12T22:34:19.330Z,9.81
2023-02-12T22:36:48.090Z,9.82
2023-02-12T22:39:17.463Z,9.51
2023-02-12T22:41:45.808Z,9.52
2023-02-12T22:44:14.767Z,9.43
2023-02-12T22:46:43.348Z,9.67
2023-02-12T22:49:11.580Z,10.09
2023-02-12T22:51:41.069Z,10.14
2023-02-12T22:54:12.301Z,10.17
2023-02-12T22:56:40.133Z,9.62
2023-02-12T22:59:08.162Z,9.69
2023-02-12T23:01:35.948Z,10.15
2023-02-12T23:04:03.977Z,9.73
2023-02-12T23:06:33.070Z,9.55
2023-02-12T23:09:04.501Z,10.08
2023-02-12T23:11:33.901Z,10.09
2023-02-12T23:14:01.894Z,10.03
2023-02-12T23:16:30.249Z,10.15
2023-02-12T23:18:59.523Z,10.31
2023-02-12T23:21:28.867Z,10.30
2023-02-12T23:23:58.979Z,10.20
2023-02-12T23:26:28.654Z,10.20
2023-02-12T23:28:56.972Z,9.91
2023-02-12T23:31:25.488Z,9.84
2023-02-12T23:33:53.446Z,9.81
2023-02-12T23:36:21.227Z,9.69
2023-02-12T23:38:48.949Z,9.70
2023-02-12T23:41:16.790Z,10.06
2023-02-12T23:43:45.998Z,10.12
2023-02-12T23:46:13.868Z,10.20
2023-02-12T23:48:41.669Z,10.25
2023-02-12T23:51:10.124Z,10.19
2023-02-12T23:53:37.930Z,10.21
2023-02-12T23:56:06.850Z,10.22
2023-02-12T23:58:34.603Z,10.45
